createdAt,value
2023-04-27T00:01:01.388Z,5.52
2023-04-27T00:03:28.498Z,5.43
2023-04-27T00:05:55.588Z,5.41
2023-04-27T00:08:22.204Z,5.41
2023-04-27T00:10:48.716Z,5.34
2023-04-27T00:13:15.333Z,5.18
2023-04-27T00:15:41.857Z,5.29
2023-04-27T00:18:08.379Z,5.41
2023-04-27T00:20:34.956Z,5.27
2023-04-27T00:23:01.547Z,5.41
2023-04-27T00:25:28.014Z,5.34
2023-04-27T00:27:54.516Z,5.19
2023-04-27T00:30:21.115Z,5.28
2023-04-27T00:32:47.823Z,5.36
2023-04-27T00:35:16.421Z,5.25
2023-04-27T00:37:42.977Z,5.22
2023-04-27T00:40:09.586Z,5.27
2023-04-27T00:42:36.584Z,5.27
2023-04-27T00:45:05.147Z,5.24
2023-04-27T00:47:32.791Z,5.25
2023-04-27T00:49:59.531Z,5.35
2023-04-27T00:52:26.246Z,5.18
2023-04-27T00:54:53.827Z,5.32
2023-04-27T00:57:21.356Z,5.29
2023-04-27T00:59:47.943Z,5.29
2023-04-27T01:02:14.552Z,5.26
2023-04-27T01:04:41.443Z,5.18
2023-04-27T01:07:08.144Z,5.30
2023-04-27T01:09:34.755Z,5.12
2023-04-27T01:12:01.617Z,5.24
2023-04-27T01:14:28.204Z,5.21
2023-04-27T01:16:54.788Z,5.22
2023-04-27T01:19:22.714Z,5.18
2023-04-27T01:21:50.427Z,5.18
2023-04-27T01:24:16.977Z,5.17
2023-04-27T01:26:43.515Z,5.13
2023-04-27T01:29:10.113Z,5.16
2023-04-27T01:31:36.586Z,5.09
2023-04-27T01:34:03.574Z,4.98
2023-04-27T01:36:30.195Z,4.97
2023-04-27T01:38:56.699Z,4.91
2023-04-27T01:41:23.925Z,4.92
2023-04-27T01:43:50.414Z,4.75
2023-04-27T01:46:16.870Z,4.77
2023-04-27T01:48:43.622Z,4.72
2023-04-27T01:51:10.996Z,4.54
2023-04-27T01:53:37.655Z,4.67
2023-04-27T01:56:04.461Z,4.55
2023-04-27T01:58:33.023Z,4.56
2023-04-27T02:00:59.549Z,4.26
2023-04-27T02:03:26.247Z,4.41
2023-04-27T02:05:53.000Z,4.46
2023-04-27T02:08:19.627Z,4.24
2023-04-27T02:10:46.333Z,4.29
2023-04-27T02:13:12.883Z,4.35
2023-04-27T02:15:39.318Z,4.30
2023-04-27T02:18:06.202Z,4.17
2023-04-27T02:20:33.225Z,3.90
2023-04-27T02:23:02.209Z,3.99
2023-04-27T02:25:28.930Z,3.94
2023-04-27T02:27:55.865Z,3.96
2023-04-27T02:30:22.961Z,3.82
2023-04-27T02:32:50.178Z,3.80
2023-04-27T02:35:16.767Z,3.94
2023-04-27T02:37:43.355Z,3.95
2023-04-27T02:40:10.326Z,3.91
2023-04-27T02:42:38.868Z,3.78
2023-04-27T02:45:08.786Z,3.77
2023-04-27T02:47:36.514Z,3.75
2023-04-27T02:50:04.090Z,3.52
2023-04-27T02:52:33.934Z,3.42
2023-04-27T02:55:00.659Z,3.46
2023-04-27T02:57:28.261Z,3.51
2023-04-27T02:59:54.900Z,3.37
2023-04-27T03:02:21.545Z,3.41
2023-04-27T03:04:53.522Z,3.31
2023-04-27T03:07:20.435Z,3.34
2023-04-27T03:09:47.117Z,3.13
2023-04-27T03:12:13.644Z,3.26
2023-04-27T03:14:40.174Z,3.20
2023-04-27T03:17:06.709Z,3.09
2023-04-27T03:19:33.227Z,3.11
2023-04-27T03:21:59.924Z,3.12
2023-04-27T03:24:27.697Z,3.18
2023-04-27T03:26:54.292Z,3.28
2023-04-27T03:29:21.173Z,3.20
2023-04-27T03:31:47.785Z,3.18
2023-04-27T03:34:14.420Z,3.21
2023-04-27T03:36:40.911Z,3.27
2023-04-27T03:39:09.908Z,3.18
2023-04-27T03:41:36.538Z,3.05
2023-04-27T03:44:03.280Z,3.05
2023-04-27T03:46:29.963Z,3.01
2023-04-27T03:48:56.520Z,2.98
2023-04-27T03:51:23.168Z,3.23
2023-04-27T03:53:49.739Z,3.08
2023-04-27T03:56:16.426Z,3.05
2023-04-27T03:58:43.100Z,3.04
2023-04-27T04:01:17.234Z,3.08
2023-04-27T04:03:43.860Z,2.97
2023-04-27T04:06:12.022Z,3.13
2023-04-27T04:08:39.174Z,3.27
2023-04-27T04:11:06.352Z,3.20
2023-04-27T04:13:36.022Z,3.27
2023-04-27T04:16:07.731Z,3.33
2023-04-27T04:18:35.491Z,3.23
2023-04-27T04:21:03.243Z,3.20
2023-04-27T04:23:29.791Z,3.43
2023-04-27T04:25:57.722Z,3.66
2023-04-27T04:28:27.516Z,3.83
2023-04-27T04:30:54.583Z,3.88
2023-04-27T04:33:21.489Z,4.01
2023-04-27T04:35:48.590Z,4.25
2023-04-27T04:38:15.156Z,5.00
2023-04-27T04:40:44.431Z,5.03
2023-04-27T04:43:13.350Z,4.62
2023-04-27T04:45:40.986Z,4.39
2023-04-27T04:48:08.625Z,4.34
2023-04-27T04:50:35.130Z,4.43
2023-04-27T04:53:01.624Z,4.54
2023-04-27T04:55:28.470Z,4.39
2023-04-27T04:57:55.185Z,4.33
2023-04-27T05:00:22.496Z,4.54
2023-04-27T05:02:49.365Z,4.43
2023-04-27T05:05:16.121Z,4.58
2023-04-27T05:07:43.082Z,4.82
2023-04-27T05:10:09.960Z,5.01
2023-04-27T05:12:36.535Z,5.10
2023-04-27T05:15:03.653Z,5.19
2023-04-27T05:17:30.302Z,5.19
2023-04-27T05:19:57.647Z,5.17
2023-04-27T05:22:24.225Z,5.15
2023-04-27T05:24:50.886Z,5.06
2023-04-27T05:27:17.470Z,4.77
2023-04-27T05:29:44.378Z,4.69
2023-04-27T05:32:11.027Z,5.13
2023-04-27T05:34:37.552Z,5.19
2023-04-27T05:37:03.966Z,5.18
2023-04-27T05:39:30.614Z,5.11
2023-04-27T05:41:57.525Z,5.04
2023-04-27T05:44:28.429Z,5.07
2023-04-27T05:46:56.315Z,5.24
2023-04-27T05:49:23.430Z,5.27
2023-04-27T05:51:50.116Z,5.53
2023-04-27T05:54:16.882Z,5.68
2023-04-27T05:56:43.377Z,5.69
2023-04-27T05:59:10.009Z,5.56
2023-04-27T06:01:36.947Z,5.80
2023-04-27T06:04:03.960Z,5.86
2023-04-27T06:06:35.419Z,5.79
2023-04-27T06:09:02.159Z,6.07
2023-04-27T06:11:28.849Z,6.56
2023-04-27T06:13:55.499Z,6.23
2023-04-27T06:16:22.180Z,6.65
2023-04-27T06:18:50.838Z,6.72
2023-04-27T06:21:17.925Z,6.85
2023-04-27T06:23:44.539Z,6.81
2023-04-27T06:26:11.498Z,6.95
2023-04-27T06:28:38.266Z,6.91
2023-04-27T06:31:05.368Z,6.87
2023-04-27T06:33:31.952Z,7.03
2023-04-27T06:35:58.532Z,7.23
2023-04-27T06:38:25.183Z,6.98
2023-04-27T06:40:53.079Z,7.08
2023-04-27T06:43:19.692Z,7.33
2023-04-27T06:45:46.491Z,7.24
2023-04-27T06:48:15.203Z,7.55
2023-04-27T06:50:42.018Z,7.30
2023-04-27T06:53:08.824Z,7.66
2023-04-27T06:55:35.681Z,7.70
2023-04-27T06:58:03.469Z,7.92
2023-04-27T07:00:30.665Z,8.10
2023-04-27T07:02:57.392Z,8.29
2023-04-27T07:05:24.005Z,8.08
2023-04-27T07:07:50.435Z,8.40
2023-04-27T07:10:17.089Z,8.81
2023-04-27T07:12:43.727Z,8.47
2023-04-27T07:15:10.659Z,8.64
2023-04-27T07:17:37.209Z,8.82
2023-04-27T07:20:06.128Z,8.94
2023-04-27T07:22:33.649Z,9.19
2023-04-27T07:25:00.422Z,9.38
2023-04-27T07:27:27.466Z,8.94
2023-04-27T07:29:54.708Z,9.00
2023-04-27T07:32:22.022Z,9.19
2023-04-27T07:34:53.703Z,9.38
2023-04-27T07:37:21.271Z,9.67
2023-04-27T07:39:50.291Z,9.77
2023-04-27T07:42:16.862Z,9.91
2023-04-27T07:44:43.351Z,10.14
2023-04-27T07:47:10.647Z,9.98
2023-04-27T07:49:38.325Z,10.17
2023-04-27T07:52:05.301Z,10.06
2023-04-27T07:54:31.853Z,10.29
2023-04-27T07:56:58.646Z,10.27
2023-04-27T07:59:28.579Z,10.39
2023-04-27T08:02:04.085Z,10.41
2023-04-27T08:04:37.986Z,10.45
2023-04-27T08:07:05.138Z,10.83
2023-04-27T08:09:32.421Z,10.68
2023-04-27T08:11:58.891Z,10.94
2023-04-27T08:14:25.480Z,11.02
2023-04-27T08:16:54.974Z,10.69
2023-04-27T08:19:21.595Z,10.68
2023-04-27T08:21:48.110Z,10.66
2023-04-27T08:24:14.616Z,10.89
2023-04-27T08:26:41.275Z,11.23
2023-04-27T08:29:19.347Z,11.20
2023-04-27T08:31:55.671Z,11.39
2023-04-27T08:34:23.126Z,11.70
2023-04-27T08:36:49.618Z,11.68
2023-04-27T08:39:16.174Z,11.55
2023-04-27T08:41:43.880Z,11.91
2023-04-27T08:44:10.488Z,11.97
2023-04-27T08:46:38.262Z,12.20
2023-04-27T08:49:06.169Z,12.35
2023-04-27T08:51:33.428Z,12.35
2023-04-27T08:54:00.213Z,12.66
2023-04-27T08:56:28.637Z,13.12
2023-04-27T08:58:56.907Z,12.79
2023-04-27T09:01:25.300Z,13.24
2023-04-27T09:04:00.469Z,13.59
2023-04-27T09:06:32.002Z,13.27
2023-04-27T09:08:59.063Z,13.26
2023-04-27T09:11:33.747Z,13.69
2023-04-27T09:14:03.121Z,13.71
2023-04-27T09:16:30.827Z,14.18
2023-04-27T09:18:58.729Z,13.87
2023-04-27T09:21:27.788Z,13.84
2023-04-27T09:23:55.981Z,14.04
2023-04-27T09:26:27.061Z,13.92
2023-04-27T09:28:59.667Z,14.13
2023-04-27T09:31:33.636Z,14.30
2023-04-27T09:34:00.406Z,14.73
2023-04-27T09:36:27.093Z,14.57
2023-04-27T09:38:53.789Z,14.04
2023-04-27T09:41:20.652Z,14.52
2023-04-27T09:43:47.437Z,14.80
2023-04-27T09:46:14.811Z,14.63
2023-04-27T09:48:42.604Z,15.15
2023-04-27T09:51:09.320Z,14.99
2023-04-27T09:53:46.660Z,15.00
2023-04-27T09:56:41.713Z,14.63
2023-04-27T09:59:33.034Z,15.01
2023-04-27T10:02:09.881Z,14.56
2023-04-27T10:04:55.153Z,15.60
2023-04-27T10:07:22.180Z,15.47
2023-04-27T10:09:51.922Z,15.37
2023-04-27T10:12:38.038Z,15.41
2023-04-27T10:15:16.250Z,15.59
2023-04-27T10:17:50.465Z,15.55
2023-04-27T10:20:17.984Z,14.80
2023-04-27T10:22:47.060Z,15.86
2023-04-27T10:25:14.963Z,14.83
2023-04-27T10:27:41.557Z,14.77
2023-04-27T10:30:12.752Z,15.22
2023-04-27T10:32:53.388Z,14.69
2023-04-27T10:35:24.570Z,15.48
2023-04-27T10:37:53.056Z,15.38
2023-04-27T10:40:19.844Z,15.40
2023-04-27T10:42:49.502Z,15.01
2023-04-27T10:45:30.270Z,15.08
2023-04-27T10:48:00.432Z,15.45
2023-04-27T10:50:28.034Z,15.36
2023-04-27T10:52:54.571Z,14.85
2023-04-27T10:55:22.786Z,15.13
2023-04-27T10:57:54.179Z,15.56
2023-04-27T11:00:24.055Z,15.54
2023-04-27T11:02:51.273Z,15.69
2023-04-27T11:05:20.088Z,16.00
2023-04-27T11:07:47.963Z,15.53
2023-04-27T11:10:18.730Z,16.24
2023-04-27T11:12:45.971Z,16.33
2023-04-27T11:15:14.165Z,16.43
2023-04-27T11:17:41.181Z,15.88
2023-04-27T11:20:08.828Z,15.55
2023-04-27T11:22:45.010Z,15.29
2023-04-27T11:25:11.864Z,15.48
2023-04-27T11:27:39.779Z,15.68
2023-04-27T11:30:08.015Z,16.27
2023-04-27T11:32:34.625Z,16.50
2023-04-27T11:35:01.628Z,16.79
2023-04-27T11:37:28.226Z,16.73
2023-04-27T11:39:55.369Z,16.59
2023-04-27T11:42:28.433Z,16.61
2023-04-27T11:45:05.844Z,16.97
2023-04-27T11:47:33.688Z,17.13
2023-04-27T11:50:02.343Z,17.38
2023-04-27T11:52:32.802Z,16.57
2023-04-27T11:55:00.435Z,16.31
2023-04-27T11:57:34.398Z,16.62
2023-04-27T12:00:02.419Z,16.39
2023-04-27T12:02:40.830Z,16.37
2023-04-27T12:05:09.564Z,16.15
2023-04-27T12:07:36.390Z,15.74
2023-04-27T12:10:02.963Z,15.83
2023-04-27T12:12:29.483Z,15.34
2023-04-27T12:14:56.035Z,15.33
2023-04-27T12:17:22.523Z,15.36
2023-04-27T12:19:49.153Z,15.38
2023-04-27T12:22:16.273Z,15.81
2023-04-27T12:24:42.760Z,16.09
2023-04-27T12:27:09.398Z,16.05
2023-04-27T12:29:36.882Z,15.88
2023-04-27T12:32:03.485Z,15.89
2023-04-27T12:34:30.051Z,16.20
2023-04-27T12:36:56.576Z,16.79
2023-04-27T12:39:25.396Z,16.69
2023-04-27T12:41:53.134Z,16.88
2023-04-27T12:44:20.535Z,17.40
2023-04-27T12:46:48.542Z,17.61
2023-04-27T12:49:15.778Z,17.58
2023-04-27T12:51:42.507Z,17.65
2023-04-27T12:54:11.224Z,17.42
2023-04-27T12:56:37.960Z,17.37
2023-04-27T12:59:05.983Z,17.31
2023-04-27T13:01:33.271Z,17.28
2023-04-27T13:04:01.800Z,17.08
2023-04-27T13:06:29.509Z,17.38
2023-04-27T13:08:56.426Z,17.01
2023-04-27T13:11:23.854Z,17.67
2023-04-27T13:13:50.690Z,18.03
2023-04-27T13:16:19.252Z,17.58
2023-04-27T13:18:49.366Z,17.56
2023-04-27T13:21:17.890Z,17.08
2023-04-27T13:23:44.429Z,17.83
2023-04-27T13:26:11.518Z,17.65
2023-04-27T13:28:38.143Z,17.54
2023-04-27T13:31:05.473Z,17.39
2023-04-27T13:33:33.543Z,17.29
2023-04-27T13:36:02.352Z,17.67
2023-04-27T13:38:29.043Z,17.92
2023-04-27T13:40:55.812Z,17.63
2023-04-27T13:43:22.346Z,17.27
2023-04-27T13:45:50.806Z,17.97
2023-04-27T13:48:17.425Z,17.99
2023-04-27T13:50:44.012Z,18.01
2023-04-27T13:53:10.665Z,17.76
2023-04-27T13:55:37.425Z,17.09
2023-04-27T13:58:04.803Z,17.22
2023-04-27T14:00:34.492Z,16.97
2023-04-27T14:03:01.623Z,16.75
2023-04-27T14:05:28.733Z,17.56
2023-04-27T14:07:55.340Z,17.61
2023-04-27T14:10:23.023Z,17.84
2023-04-27T14:12:49.908Z,17.71
2023-04-27T14:15:16.938Z,17.45
2023-04-27T14:17:43.527Z,17.42
2023-04-27T14:20:10.242Z,17.16
2023-04-27T14:22:37.091Z,16.94
2023-04-27T14:25:03.898Z,17.10
2023-04-27T14:27:30.540Z,16.92
2023-04-27T14:29:57.099Z,17.00
2023-04-27T14:32:23.621Z,16.86
2023-04-27T14:34:50.200Z,17.04
2023-04-27T14:37:16.740Z,16.54
2023-04-27T14:39:45.266Z,16.59
2023-04-27T14:42:12.136Z,16.66
2023-04-27T14:44:38.673Z,16.71
2023-04-27T14:47:06.306Z,16.78
2023-04-27T14:49:32.915Z,16.79
2023-04-27T14:52:03.184Z,16.97
2023-04-27T14:54:29.741Z,16.48
2023-04-27T14:56:58.224Z,16.52
2023-04-27T14:59:25.434Z,16.83
2023-04-27T15:01:52.175Z,17.21
2023-04-27T15:04:19.028Z,17.19
2023-04-27T15:06:45.928Z,17.10
2023-04-27T15:09:13.499Z,17.23
2023-04-27T15:11:40.440Z,17.24
2023-04-27T15:14:08.569Z,17.13
2023-04-27T15:16:35.520Z,17.07
2023-04-27T15:19:02.462Z,16.24
2023-04-27T15:21:30.355Z,16.73
2023-04-27T15:23:57.149Z,16.77
2023-04-27T15:26:23.803Z,16.67
2023-04-27T15:28:50.717Z,16.75
2023-04-27T15:31:17.366Z,16.82
2023-04-27T15:33:43.915Z,16.71
2023-04-27T15:36:10.532Z,16.82
2023-04-27T15:38:37.017Z,16.79
2023-04-27T15:41:03.543Z,16.63
2023-04-27T15:43:30.196Z,16.81
2023-04-27T15:45:57.045Z,16.43
2023-04-27T15:48:23.566Z,16.74
2023-04-27T15:50:49.976Z,16.77
2023-04-27T15:53:16.550Z,16.97
2023-04-27T15:55:43.308Z,16.55
2023-04-27T15:58:09.894Z,16.23
2023-04-27T16:00:36.854Z,16.62
2023-04-27T16:03:04.247Z,16.63
2023-04-27T16:05:31.210Z,16.63
2023-04-27T16:07:58.351Z,16.58
2023-04-27T16:10:24.908Z,16.59
2023-04-27T16:12:51.350Z,16.58
2023-04-27T16:15:18.187Z,16.25
2023-04-27T16:17:44.744Z,16.27
2023-04-27T16:20:11.477Z,16.26
2023-04-27T16:22:38.085Z,15.91
2023-04-27T16:25:10.235Z,15.51
2023-04-27T16:27:38.277Z,15.53
2023-04-27T16:30:06.658Z,15.57
2023-04-27T16:32:35.327Z,15.53
2023-04-27T16:35:02.384Z,15.58
2023-04-27T16:37:28.844Z,15.39
2023-04-27T16:39:59.099Z,15.29
2023-04-27T16:42:25.739Z,15.20
2023-04-27T16:44:52.410Z,15.03
2023-04-27T16:47:18.965Z,15.02
2023-04-27T16:49:45.444Z,14.96
2023-04-27T16:52:12.173Z,14.70
2023-04-27T16:54:38.707Z,14.87
2023-04-27T16:57:05.227Z,14.96
2023-04-27T16:59:32.410Z,14.87
2023-04-27T17:02:09.075Z,14.83
2023-04-27T17:04:43.476Z,14.79
2023-04-27T17:07:10.038Z,14.66
2023-04-27T17:09:37.112Z,14.43
2023-04-27T17:12:08.113Z,14.27
2023-04-27T17:14:34.698Z,14.28
2023-04-27T17:17:01.569Z,14.30
2023-04-27T17:19:28.546Z,14.08
2023-04-27T17:21:55.446Z,13.96
2023-04-27T17:24:23.974Z,13.84
2023-04-27T17:26:51.296Z,13.48
2023-04-27T17:29:17.821Z,13.70
2023-04-27T17:31:44.301Z,13.54
2023-04-27T17:34:11.713Z,13.44
2023-04-27T17:36:38.626Z,13.40
2023-04-27T17:39:05.145Z,13.24
2023-04-27T17:41:33.063Z,13.36
2023-04-27T17:44:00.372Z,13.37
2023-04-27T17:46:26.864Z,13.18
2023-04-27T17:48:53.381Z,13.16
2023-04-27T17:51:20.009Z,13.05
2023-04-27T17:53:46.666Z,12.99
2023-04-27T17:56:13.258Z,12.94
2023-04-27T17:58:39.692Z,12.80
2023-04-27T18:01:10.035Z,12.78
2023-04-27T18:03:37.078Z,12.61
2023-04-27T18:06:03.747Z,12.61
2023-04-27T18:08:30.395Z,12.47
2023-04-27T18:10:56.975Z,12.31
2023-04-27T18:13:23.719Z,12.28
2023-04-27T18:15:50.392Z,12.25
2023-04-27T18:18:22.575Z,12.11
2023-04-27T18:20:51.220Z,11.61
2023-04-27T18:23:17.690Z,11.74
2023-04-27T18:25:44.324Z,11.64
2023-04-27T18:28:11.156Z,11.55
2023-04-27T18:30:37.903Z,11.50
2023-04-27T18:33:04.659Z,11.37
2023-04-27T18:35:31.261Z,11.29
2023-04-27T18:37:57.686Z,11.15
2023-04-27T18:40:25.818Z,10.95
2023-04-27T18:42:53.411Z,10.96
2023-04-27T18:45:20.264Z,11.01
2023-04-27T18:47:46.934Z,10.86
2023-04-27T18:50:13.720Z,10.74
2023-04-27T18:52:40.500Z,10.83
2023-04-27T18:55:09.008Z,10.84
2023-04-27T18:57:35.581Z,10.74
2023-04-27T19:00:04.544Z,10.59
2023-04-27T19:02:31.859Z,10.47
2023-04-27T19:05:11.378Z,10.40
2023-04-27T19:07:39.955Z,10.39
2023-04-27T19:10:09.318Z,10.35
2023-04-27T19:12:35.970Z,10.12
2023-04-27T19:15:03.237Z,10.24
2023-04-27T19:17:30.170Z,10.14
2023-04-27T19:19:56.936Z,10.16
2023-04-27T19:22:23.469Z,9.90
2023-04-27T19:24:49.924Z,10.11
2023-04-27T19:27:16.481Z,9.98
2023-04-27T19:29:53.569Z,9.88
2023-04-27T19:32:20.830Z,9.87
2023-04-27T19:34:48.616Z,9.69
2023-04-27T19:37:15.966Z,9.38
2023-04-27T19:39:42.547Z,9.69
2023-04-27T19:42:09.357Z,9.66
2023-04-27T19:44:36.015Z,9.61
2023-04-27T19:47:02.506Z,9.66
2023-04-27T19:49:32.714Z,9.51
2023-04-27T19:52:02.878Z,9.44
2023-04-27T19:54:29.567Z,9.39
2023-04-27T19:56:56.230Z,9.42
2023-04-27T19:59:22.892Z,9.35
2023-04-27T20:01:49.601Z,9.31
2023-04-27T20:04:18.007Z,9.10
2023-04-27T20:06:45.162Z,8.97
2023-04-27T20:09:11.928Z,9.05
2023-04-27T20:11:38.658Z,9.03
2023-04-27T20:14:05.630Z,9.03
2023-04-27T20:16:32.307Z,9.02
2023-04-27T20:18:58.884Z,8.92
2023-04-27T20:21:28.037Z,8.88
2023-04-27T20:23:54.761Z,8.82
2023-04-27T20:26:22.402Z,8.75
2023-04-27T20:28:49.076Z,8.69
2023-04-27T20:31:16.071Z,8.74
2023-04-27T20:33:42.662Z,8.64
2023-04-27T20:36:17.046Z,8.56
2023-04-27T20:38:45.433Z,8.52
2023-04-27T20:41:14.893Z,8.66
2023-04-27T20:43:41.469Z,8.63
2023-04-27T20:46:08.111Z,8.59
2023-04-27T20:48:34.702Z,8.54
2023-04-27T20:51:02.726Z,8.52
2023-04-27T20:53:29.740Z,8.40
2023-04-27T20:55:57.028Z,8.42
2023-04-27T20:58:23.672Z,8.30
2023-04-27T21:00:50.390Z,8.17
2023-04-27T21:03:17.118Z,8.21
2023-04-27T21:05:44.128Z,8.23
2023-04-27T21:08:10.850Z,8.22
2023-04-27T21:10:37.423Z,8.37
2023-04-27T21:13:04.114Z,8.31
2023-04-27T21:15:30.983Z,8.25
2023-04-27T21:17:57.552Z,8.27
2023-04-27T21:20:24.217Z,8.25
2023-04-27T21:22:50.650Z,8.19
2023-04-27T21:25:17.304Z,8.09
2023-04-27T21:27:44.019Z,8.20
2023-04-27T21:30:11.118Z,8.13
2023-04-27T21:32:37.724Z,8.01
2023-04-27T21:35:04.595Z,8.05
2023-04-27T21:37:31.183Z,8.04
2023-04-27T21:39:57.595Z,7.97
2023-04-27T21:42:24.202Z,7.91
2023-04-27T21:44:50.712Z,7.99
2023-04-27T21:47:17.184Z,8.02
2023-04-27T21:49:43.707Z,8.00
2023-04-27T21:52:11.126Z,7.95
2023-04-27T21:54:37.651Z,7.96
2023-04-27T21:57:04.204Z,7.70
2023-04-27T21:59:30.819Z,7.89
2023-04-27T22:17:51.275Z,7.07
2023-04-27T22:20:18.930Z,7.11
2023-04-27T22:22:45.906Z,7.16
2023-04-27T22:25:12.701Z,7.13
2023-04-27T22:27:45.142Z,7.22
2023-04-27T22:30:12.832Z,7.27
2023-04-27T22:32:39.399Z,7.28
2023-04-27T22:35:18.716Z,7.28
2023-04-27T22:37:51.736Z,7.28
2023-04-27T22:40:18.292Z,7.22
2023-04-27T22:42:44.798Z,7.30
2023-04-27T22:45:11.861Z,7.22
2023-04-27T22:47:38.800Z,7.23
2023-04-27T22:50:06.694Z,7.29
2023-04-27T22:52:33.799Z,7.18
2023-04-27T22:55:02.133Z,7.16
2023-04-27T22:57:28.954Z,7.23
2023-04-27T22:59:55.697Z,7.26
2023-04-27T23:02:23.192Z,7.31
2023-04-27T23:04:50.039Z,7.31
2023-04-27T23:07:18.336Z,7.36
2023-04-27T23:09:45.862Z,7.35
2023-04-27T23:12:12.453Z,7.38
2023-04-27T23:14:40.059Z,7.35
2023-04-27T23:17:07.546Z,7.29
2023-04-27T23:19:34.717Z,7.23
2023-04-27T23:22:02.029Z,7.24
2023-04-27T23:24:31.797Z,7.27
2023-04-27T23:26:58.557Z,7.33
2023-04-27T23:29:25.436Z,7.35
2023-04-27T23:31:52.091Z,7.28
2023-04-27T23:34:18.715Z,7.21
2023-04-27T23:36:45.302Z,7.18
2023-04-27T23:39:11.735Z,7.13
2023-04-27T23:41:38.330Z,7.04
2023-04-27T23:44:04.801Z,7.12
2023-04-27T23:46:31.473Z,7.03
2023-04-27T23:48:58.092Z,7.01
2023-04-27T23:51:24.632Z,7.13
2023-04-27T23:53:51.160Z,6.91
2023-04-27T23:56:18.668Z,7.03
2023-04-27T23:58:45.914Z,7.13
